createdAt,value
2022-11-16T00:01:35.752Z,75.90
2022-11-16T00:04:04.530Z,75.70
2022-11-16T00:06:32.036Z,75.70
2022-11-16T00:09:20.567Z,75.60
2022-11-16T00:11:51.359Z,75.40
2022-11-16T00:14:20.259Z,75.80
2022-11-16T00:16:47.505Z,75.70
2022-11-16T00:19:14.684Z,75.80
2022-11-16T00:21:42.339Z,75.90
2022-11-16T00:24:13.601Z,75.90
2022-11-16T00:26:41.389Z,76.10
2022-11-16T00:29:15.128Z,76.10
2022-11-16T00:31:42.742Z,76.40
2022-11-16T00:34:09.970Z,76.10
2022-11-16T00:36:37.201Z,76.30
2022-11-16T00:39:04.837Z,76.30
2022-11-16T00:41:31.955Z,76.50
2022-11-16T00:43:59.290Z,76.60
2022-11-16T00:46:26.390Z,76.70
2022-11-16T00:48:53.900Z,76.50
2022-11-16T00:51:21.018Z,76.30
2022-11-16T00:53:48.299Z,76.30
2022-11-16T00:56:15.374Z,76.20
2022-11-16T00:58:44.265Z,76.00
2022-11-16T01:01:12.753Z,76.10
2022-11-16T01:03:40.158Z,76.30
2022-11-16T01:06:13.608Z,76.50
2022-11-16T01:08:42.395Z,76.30
2022-11-16T01:11:28.833Z,76.50
2022-11-16T01:13:59.208Z,76.60
2022-11-16T01:16:26.281Z,76.80
2022-11-16T01:18:55.184Z,76.90
2022-11-16T01:21:23.327Z,77.10
2022-11-16T01:23:51.178Z,77.20
2022-11-16T01:26:18.844Z,77.20
2022-11-16T01:28:46.283Z,77.20
2022-11-16T01:31:14.480Z,77.40
2022-11-16T01:33:42.648Z,77.60
2022-11-16T01:36:19.636Z,77.50
2022-11-16T01:38:47.542Z,77.70
2022-11-16T01:41:27.042Z,78.00
2022-11-16T01:44:07.183Z,78.50
2022-11-16T01:46:49.897Z,78.50
2022-11-16T01:49:20.843Z,78.50
2022-11-16T01:51:57.688Z,78.20
2022-11-16T01:54:27.548Z,78.10
2022-11-16T01:57:03.000Z,78.10
2022-11-16T01:59:40.566Z,78.20
2022-11-16T02:02:14.319Z,77.80
2022-11-16T02:04:41.824Z,77.50
2022-11-16T02:07:27.685Z,77.40
2022-11-16T02:10:16.111Z,77.20
2022-11-16T02:13:18.440Z,77.50
2022-11-16T02:15:58.705Z,77.40
2022-11-16T02:18:45.493Z,77.70
2022-11-16T02:21:26.809Z,77.20
2022-11-16T02:24:21.123Z,76.90
2022-11-16T02:27:06.183Z,76.50
2022-11-16T02:29:39.979Z,76.40
2022-11-16T02:32:17.389Z,76.30
2022-11-16T02:34:52.731Z,76.30
2022-11-16T02:37:23.581Z,75.90
2022-11-16T02:39:57.620Z,75.60
2022-11-16T02:42:56.397Z,75.50
2022-11-16T02:45:29.167Z,75.60
2022-11-16T02:48:01.681Z,75.70
2022-11-16T02:50:30.206Z,75.60
2022-11-16T02:52:57.257Z,75.80
2022-11-16T02:55:28.756Z,75.70
2022-11-16T02:58:02.820Z,75.30
2022-11-16T03:00:43.694Z,75.10
2022-11-16T03:03:17.790Z,75.00
2022-11-16T03:05:50.521Z,75.10
2022-11-16T03:08:35.496Z,75.20
2022-11-16T03:11:27.295Z,75.40
2022-11-16T03:14:03.667Z,75.20
2022-11-16T03:16:45.440Z,75.30
2022-11-16T03:19:17.258Z,74.90
2022-11-16T03:21:49.235Z,74.80
2022-11-16T03:24:16.823Z,74.90
2022-11-16T03:27:02.817Z,74.90
2022-11-16T03:29:34.055Z,74.70
2022-11-16T03:32:26.423Z,74.30
2022-11-16T03:35:03.728Z,74.20
2022-11-16T03:37:33.259Z,74.30
2022-11-16T03:40:04.180Z,74.30
2022-11-16T03:42:33.957Z,74.20
2022-11-16T03:45:01.957Z,74.30
2022-11-16T03:47:30.062Z,74.30
2022-11-16T03:49:57.692Z,74.10
2022-11-16T03:52:25.546Z,74.10
2022-11-16T03:54:52.862Z,74.10
2022-11-16T03:57:20.458Z,74.20
2022-11-16T03:59:53.802Z,74.30
2022-11-16T04:02:21.137Z,74.50
2022-11-16T04:05:08.726Z,74.30
2022-11-16T04:07:56.043Z,74.40
2022-11-16T04:10:41.917Z,74.60
2022-11-16T04:13:31.226Z,74.70
2022-11-16T04:16:17.058Z,74.90
2022-11-16T04:19:03.727Z,74.90
2022-11-16T04:22:02.755Z,74.80
2022-11-16T04:24:38.118Z,74.90
2022-11-16T04:27:28.381Z,75.00
2022-11-16T04:29:58.705Z,75.30
2022-11-16T04:32:53.636Z,75.30
2022-11-16T04:35:39.213Z,75.50
2022-11-16T04:38:08.422Z,75.90
2022-11-16T04:40:36.757Z,76.20
2022-11-16T04:43:05.103Z,76.00
2022-11-16T04:45:58.302Z,75.70
2022-11-16T04:48:33.233Z,75.50
2022-11-16T04:51:02.595Z,75.30
2022-11-16T04:53:30.086Z,75.30
2022-11-16T04:56:12.736Z,75.30
2022-11-16T04:58:39.869Z,75.40
2022-11-16T05:01:08.207Z,75.50
2022-11-16T05:03:36.396Z,75.30
2022-11-16T05:06:04.956Z,75.70
2022-11-16T05:08:32.973Z,75.50
2022-11-16T05:11:02.852Z,75.80
2022-11-16T05:13:30.067Z,75.80
2022-11-16T05:15:57.837Z,76.30
2022-11-16T05:18:25.914Z,76.10
2022-11-16T05:21:01.879Z,76.20
2022-11-16T05:23:56.873Z,75.70
2022-11-16T05:26:28.589Z,75.60
2022-11-16T05:28:55.857Z,75.60
2022-11-16T05:31:23.036Z,75.70
2022-11-16T05:33:50.303Z,75.80
2022-11-16T05:36:18.847Z,75.60
2022-11-16T05:38:46.335Z,75.60
2022-11-16T05:41:14.500Z,75.70
2022-11-16T05:43:42.649Z,75.80
2022-11-16T05:46:17.966Z,75.70
2022-11-16T05:48:45.760Z,75.80
2022-11-16T05:51:13.267Z,76.00
2022-11-16T05:53:40.649Z,76.10
2022-11-16T05:56:08.085Z,76.20
2022-11-16T05:58:38.808Z,76.10
2022-11-16T06:01:06.631Z,76.00
2022-11-16T06:03:35.684Z,75.90
2022-11-16T06:06:04.652Z,75.70
2022-11-16T06:08:32.733Z,75.40
2022-11-16T06:11:04.809Z,75.40
2022-11-16T06:13:33.456Z,75.40
2022-11-16T06:16:02.592Z,75.80
2022-11-16T06:18:32.084Z,75.90
2022-11-16T06:20:59.490Z,75.90
2022-11-16T06:23:27.039Z,76.00
2022-11-16T06:25:55.756Z,76.10
2022-11-16T06:28:26.090Z,75.90
2022-11-16T06:30:54.160Z,75.80
2022-11-16T06:33:23.908Z,75.70
2022-11-16T06:35:51.394Z,75.60
2022-11-16T06:38:24.582Z,75.40
2022-11-16T06:40:56.913Z,75.10
2022-11-16T06:43:26.873Z,74.60
2022-11-16T06:45:58.235Z,74.20
2022-11-16T06:48:26.394Z,73.50
2022-11-16T06:50:54.313Z,73.50
2022-11-16T06:53:27.742Z,73.60
2022-11-16T06:56:06.443Z,73.60
2022-11-16T06:58:41.694Z,73.40
2022-11-16T07:01:12.134Z,73.50
2022-11-16T07:03:41.820Z,73.40
2022-11-16T07:06:11.423Z,73.00
2022-11-16T07:08:40.744Z,72.00
2022-11-16T07:11:10.601Z,71.70
2022-11-16T07:13:39.160Z,71.50
2022-11-16T07:16:09.617Z,71.30
2022-11-16T07:18:41.414Z,71.20
2022-11-16T07:21:10.422Z,71.20
2022-11-16T07:23:39.034Z,71.30
2022-11-16T07:26:09.722Z,70.80
2022-11-16T07:29:09.458Z,70.30
2022-11-16T07:31:41.387Z,69.20
2022-11-16T07:34:31.319Z,69.10
2022-11-16T07:37:06.062Z,68.70
2022-11-16T07:39:33.633Z,68.50
2022-11-16T07:42:00.745Z,68.10
2022-11-16T07:44:44.457Z,67.20
2022-11-16T07:47:11.630Z,66.80
2022-11-16T07:49:38.958Z,66.90
2022-11-16T07:52:18.397Z,66.70
2022-11-16T07:55:06.242Z,66.70
2022-11-16T07:57:34.713Z,66.60
2022-11-16T08:00:06.777Z,66.00
2022-11-16T08:02:43.198Z,65.80
2022-11-16T08:05:17.183Z,65.80
2022-11-16T08:07:44.798Z,65.50
2022-11-16T08:10:11.904Z,64.70
2022-11-16T08:12:40.292Z,64.40
2022-11-16T08:15:08.482Z,64.10
2022-11-16T08:17:35.710Z,64.00
2022-11-16T08:20:05.560Z,63.70
2022-11-16T08:22:32.717Z,63.30
2022-11-16T08:24:59.811Z,63.30
2022-11-16T08:27:27.309Z,63.30
2022-11-16T08:29:56.540Z,62.50
2022-11-16T08:32:23.790Z,63.60
2022-11-16T08:34:51.171Z,63.90
2022-11-16T08:37:18.798Z,63.80
2022-11-16T08:39:47.583Z,63.20
2022-11-16T08:42:15.031Z,63.50
2022-11-16T08:44:46.773Z,64.00
2022-11-16T08:47:16.759Z,64.20
2022-11-16T08:49:55.873Z,63.80
2022-11-16T08:52:25.162Z,63.40
2022-11-16T08:54:53.956Z,62.60
2022-11-16T08:57:21.644Z,62.60
2022-11-16T08:59:53.956Z,61.30
2022-11-16T09:02:25.502Z,61.20
2022-11-16T09:04:53.337Z,60.70
2022-11-16T09:07:21.112Z,60.30
2022-11-16T09:09:48.816Z,59.90
2022-11-16T09:12:16.571Z,60.20
2022-11-16T09:14:43.898Z,60.40
2022-11-16T09:17:11.096Z,60.90
2022-11-16T09:19:38.206Z,59.90
2022-11-16T09:22:05.513Z,59.60
2022-11-16T09:24:32.812Z,59.70
2022-11-16T09:27:01.589Z,59.90
2022-11-16T09:29:28.816Z,59.30
2022-11-16T09:31:56.314Z,59.70
2022-11-16T09:34:23.675Z,60.50
2022-11-16T09:36:50.732Z,59.80
2022-11-16T09:39:33.250Z,59.60
2022-11-16T09:42:27.248Z,59.70
2022-11-16T09:45:12.648Z,60.00
2022-11-16T09:47:49.333Z,60.40
2022-11-16T09:50:43.711Z,60.10
2022-11-16T09:53:38.048Z,60.00
2022-11-16T09:56:11.181Z,59.90
2022-11-16T09:59:00.381Z,59.80
2022-11-16T10:01:32.762Z,59.80
2022-11-16T10:04:26.858Z,59.60
2022-11-16T10:07:22.691Z,59.40
2022-11-16T10:09:50.022Z,59.20
2022-11-16T10:12:31.371Z,59.00
2022-11-16T10:15:39.454Z,58.80
2022-11-16T10:18:27.547Z,58.40
2022-11-16T10:21:23.813Z,58.20
2022-11-16T10:24:27.429Z,58.30
2022-11-16T10:27:17.789Z,57.70
2022-11-16T10:30:08.279Z,57.20
2022-11-16T10:32:56.899Z,56.90
2022-11-16T10:35:26.843Z,57.00
2022-11-16T10:37:54.454Z,55.90
2022-11-16T10:40:30.639Z,55.30
2022-11-16T10:43:10.385Z,55.20
2022-11-16T10:45:49.760Z,54.60
2022-11-16T10:48:37.189Z,54.60
2022-11-16T10:51:09.823Z,53.60
2022-11-16T10:53:43.883Z,54.10
2022-11-16T10:56:16.121Z,53.20
2022-11-16T10:59:23.013Z,52.70
2022-11-16T11:01:53.463Z,51.70
2022-11-16T11:04:31.746Z,51.50
2022-11-16T11:07:01.135Z,50.00
2022-11-16T11:09:33.617Z,49.20
2022-11-16T11:12:38.285Z,48.00
2022-11-16T11:15:11.424Z,47.50
2022-11-16T11:17:44.302Z,45.70
2022-11-16T11:20:24.380Z,45.60
2022-11-16T11:22:57.799Z,45.10
2022-11-16T11:25:41.457Z,44.60
2022-11-16T11:28:32.266Z,45.20
2022-11-16T11:31:01.714Z,45.00
2022-11-16T11:33:38.707Z,45.40
2022-11-16T11:36:27.650Z,43.60
2022-11-16T11:38:58.482Z,43.50
2022-11-16T11:41:28.532Z,44.00
2022-11-16T11:44:03.428Z,44.90
2022-11-16T11:47:18.269Z,44.00
2022-11-16T11:49:34.054Z,43.30
2022-11-16T11:52:18.029Z,43.30
2022-11-16T11:54:47.991Z,42.30
2022-11-16T11:57:22.191Z,41.70
2022-11-16T11:59:54.559Z,41.50
2022-11-16T12:02:49.613Z,41.70
2022-11-16T12:06:06.316Z,42.10
2022-11-16T12:08:39.713Z,43.80
2022-11-16T12:11:27.503Z,44.80
2022-11-16T12:13:54.655Z,43.90
2022-11-16T12:16:24.664Z,42.90
2022-11-16T12:18:55.749Z,42.40
2022-11-16T12:21:34.727Z,41.30
2022-11-16T12:24:23.356Z,40.90
2022-11-16T12:27:11.581Z,41.90
2022-11-16T12:29:43.712Z,42.20
2022-11-16T12:32:48.282Z,41.60
2022-11-16T12:35:26.574Z,42.40
2022-11-16T12:38:38.302Z,43.60
2022-11-16T12:41:26.356Z,44.90
2022-11-16T12:44:16.611Z,46.60
2022-11-16T12:47:05.896Z,48.00
2022-11-16T12:49:45.425Z,49.60
2022-11-16T12:52:38.184Z,51.70
2022-11-16T12:55:57.803Z,52.60
2022-11-16T12:58:30.829Z,52.70
2022-11-16T13:01:19.109Z,52.50
2022-11-16T13:04:24.434Z,52.90
2022-11-16T13:07:12.822Z,52.50
2022-11-16T13:09:48.940Z,52.40
2022-11-16T13:12:19.463Z,52.50
2022-11-16T13:14:49.862Z,52.70
2022-11-16T13:17:24.197Z,52.20
2022-11-16T13:20:22.113Z,52.40
2022-11-16T13:23:07.039Z,52.60
2022-11-16T13:26:03.979Z,53.60
2022-11-16T13:28:50.764Z,53.40
2022-11-16T13:31:43.963Z,53.50
2022-11-16T13:34:35.754Z,53.40
2022-11-16T13:37:40.169Z,53.30
2022-11-16T13:40:07.386Z,53.30
2022-11-16T13:43:02.958Z,53.40
2022-11-16T13:45:57.491Z,53.10
2022-11-16T13:48:34.843Z,52.40
2022-11-16T13:51:05.849Z,52.50
2022-11-16T13:56:49.135Z,52.60
2022-11-16T13:59:22.942Z,50.70
2022-11-16T14:01:59.462Z,50.30
2022-11-16T14:04:41.911Z,49.80
2022-11-16T14:07:29.636Z,50.40
2022-11-16T14:09:57.397Z,50.40
2022-11-16T14:12:50.476Z,50.90
2022-11-16T14:15:26.525Z,51.40
2022-11-16T14:18:03.217Z,51.80
2022-11-16T14:20:30.377Z,52.00
2022-11-16T14:23:34.619Z,52.40
2022-11-16T14:26:42.202Z,52.00
2022-11-16T14:29:15.584Z,52.00
2022-11-16T14:31:56.951Z,52.20
2022-11-16T14:34:40.183Z,52.10
2022-11-16T14:37:30.537Z,51.90
2022-11-16T14:40:08.550Z,52.20
2022-11-16T14:43:15.427Z,52.80
2022-11-16T14:45:39.176Z,53.20
2022-11-16T14:48:17.638Z,53.70
2022-11-16T14:50:58.912Z,54.20
2022-11-16T14:53:28.387Z,54.50
2022-11-16T14:56:11.018Z,54.30
2022-11-16T14:58:39.104Z,54.30
2022-11-16T15:01:14.664Z,54.80
2022-11-16T15:03:52.717Z,55.10
2022-11-16T15:06:21.125Z,55.30
2022-11-16T15:09:02.403Z,55.20
2022-11-16T15:11:56.263Z,55.40
2022-11-16T15:14:30.133Z,55.70
2022-11-16T15:16:59.230Z,55.90
2022-11-16T15:19:30.723Z,55.00
2022-11-16T15:22:00.524Z,54.80
2022-11-16T15:24:33.766Z,54.50
2022-11-16T15:27:35.922Z,54.50
2022-11-16T15:30:34.246Z,54.50
2022-11-16T15:33:11.298Z,54.50
2022-11-16T15:35:38.998Z,54.60
2022-11-16T15:38:29.421Z,56.10
2022-11-16T15:40:59.526Z,55.70
2022-11-16T15:43:49.760Z,56.00
2022-11-16T15:46:32.309Z,55.40
2022-11-16T15:49:00.156Z,55.90
2022-11-16T15:51:32.986Z,55.70
2022-11-16T15:54:15.281Z,55.60
2022-11-16T15:56:43.026Z,55.80
2022-11-16T15:59:13.489Z,56.20
2022-11-16T16:01:45.432Z,56.30
2022-11-16T16:04:17.981Z,56.90
2022-11-16T16:06:52.940Z,57.30
2022-11-16T16:09:29.131Z,57.20
2022-11-16T16:12:16.783Z,57.70
2022-11-16T16:14:44.845Z,58.20
2022-11-16T16:17:22.201Z,58.80
2022-11-16T16:20:00.769Z,59.50
2022-11-16T16:22:37.874Z,60.30
2022-11-16T16:25:06.777Z,60.80
2022-11-16T16:27:40.011Z,61.50
2022-11-16T16:30:08.810Z,62.20
2022-11-16T16:32:37.916Z,62.80
2022-11-16T16:35:07.789Z,63.40
2022-11-16T16:37:38.723Z,63.80
2022-11-16T16:40:06.693Z,64.70
2022-11-16T16:42:33.977Z,65.50
2022-11-16T16:45:02.404Z,66.50
2022-11-16T16:47:29.841Z,66.80
2022-11-16T16:49:57.661Z,67.50
2022-11-16T16:52:24.949Z,67.90
2022-11-16T16:54:52.101Z,68.90
2022-11-16T16:57:19.321Z,69.60
2022-11-16T16:59:49.914Z,70.10
2022-11-16T17:02:18.223Z,70.00
2022-11-16T17:04:47.043Z,70.30
2022-11-16T17:07:15.988Z,70.80
2022-11-16T17:09:43.307Z,71.10
2022-11-16T17:12:11.169Z,71.70
2022-11-16T17:14:39.212Z,72.20
2022-11-16T17:17:06.393Z,72.60
2022-11-16T17:19:33.512Z,72.70
2022-11-16T17:22:00.750Z,73.20
2022-11-16T17:24:27.917Z,73.20
2022-11-16T17:26:55.273Z,73.80
2022-11-16T17:29:22.424Z,73.80
2022-11-16T17:31:49.612Z,73.90
2022-11-16T17:34:16.782Z,73.60
2022-11-16T17:36:45.012Z,73.60
2022-11-16T17:39:12.273Z,73.40
2022-11-16T17:41:40.755Z,73.50
2022-11-16T17:44:08.791Z,73.00
2022-11-16T17:46:36.011Z,72.80
2022-11-16T17:49:03.272Z,71.80
2022-11-16T17:51:30.504Z,71.70
2022-11-16T17:53:57.907Z,71.70
2022-11-16T17:56:27.376Z,71.60
2022-11-16T17:59:00.902Z,71.30
2022-11-16T18:01:28.523Z,71.20
2022-11-16T18:03:56.109Z,71.30
2022-11-16T18:06:25.340Z,71.20
2022-11-16T18:08:53.368Z,71.50
2022-11-16T18:11:25.786Z,71.50
2022-11-16T18:13:55.348Z,72.00
2022-11-16T18:16:26.580Z,72.20
2022-11-16T18:19:05.322Z,72.30
2022-11-16T18:21:38.393Z,73.00
2022-11-16T18:24:06.370Z,73.30
2022-11-16T18:26:33.599Z,74.00
2022-11-16T18:29:00.944Z,74.20
2022-11-16T18:31:29.889Z,74.70
2022-11-16T18:33:57.060Z,75.20
2022-11-16T18:36:24.360Z,75.10
2022-11-16T18:38:51.603Z,75.30
2022-11-16T18:41:21.853Z,75.50
2022-11-16T18:43:53.483Z,75.60
2022-11-16T18:46:23.127Z,75.90
2022-11-16T18:48:53.319Z,76.30
2022-11-16T18:51:23.002Z,76.60
2022-11-16T18:53:51.237Z,76.70
2022-11-16T18:56:19.523Z,76.90
2022-11-16T18:58:52.428Z,77.20
2022-11-16T19:01:26.925Z,77.00
2022-11-16T19:03:57.987Z,77.50
2022-11-16T19:06:25.628Z,77.70
2022-11-16T19:09:01.346Z,77.80
2022-11-16T19:14:10.380Z,78.00
2022-11-16T19:16:41.873Z,78.20
2022-11-16T19:19:13.115Z,78.40
2022-11-16T19:21:43.302Z,78.30
2022-11-16T19:24:13.632Z,78.40
2022-11-16T19:26:43.031Z,78.10
2022-11-16T19:29:13.457Z,78.10
2022-11-16T19:31:47.062Z,78.20
2022-11-16T19:34:40.886Z,78.20
2022-11-16T19:37:09.620Z,78.20
2022-11-16T19:39:36.969Z,78.20
2022-11-16T19:42:04.728Z,78.50
2022-11-16T19:44:31.864Z,78.20
2022-11-16T19:47:00.835Z,78.40
2022-11-16T19:49:28.277Z,78.50
2022-11-16T19:51:56.399Z,78.60
2022-11-16T19:54:24.467Z,78.60
2022-11-16T19:56:55.011Z,78.90
2022-11-16T19:59:23.243Z,78.90
2022-11-16T20:01:50.516Z,79.30
2022-11-16T20:04:17.733Z,79.40
2022-11-16T20:06:45.132Z,79.70
2022-11-16T20:09:12.979Z,79.80
2022-11-16T20:11:41.552Z,80.10
2022-11-16T20:14:10.847Z,80.30
2022-11-16T20:16:42.476Z,80.70
2022-11-16T20:19:10.681Z,80.70
2022-11-16T20:21:39.928Z,80.90
2022-11-16T20:24:09.714Z,80.70
2022-11-16T20:26:40.748Z,81.00
2022-11-16T20:29:10.351Z,81.00
2022-11-16T20:31:38.550Z,81.00
2022-11-16T20:34:06.224Z,81.10
2022-11-16T20:36:34.169Z,81.00
2022-11-16T20:39:02.503Z,81.20
2022-11-16T20:41:31.437Z,81.30
2022-11-16T20:44:00.418Z,81.30
2022-11-16T20:46:29.936Z,81.50
2022-11-16T20:48:59.506Z,81.50
2022-11-16T20:51:27.125Z,81.40
2022-11-16T20:53:54.230Z,81.10
2022-11-16T20:56:22.192Z,80.70
2022-11-16T20:58:50.628Z,80.00
2022-11-16T21:01:29.073Z,79.80
2022-11-16T21:03:57.747Z,79.70
2022-11-16T21:06:25.599Z,79.80
2022-11-16T21:08:53.237Z,79.90
2022-11-16T21:11:28.213Z,80.20
2022-11-16T21:14:13.891Z,80.40
2022-11-16T21:16:44.350Z,80.70
2022-11-16T21:19:11.976Z,80.70
2022-11-16T21:21:41.085Z,80.90
2022-11-16T21:24:09.279Z,81.10
2022-11-16T21:26:37.454Z,81.10
2022-11-16T21:29:05.251Z,81.30
2022-11-16T21:31:34.957Z,81.50
2022-11-16T21:34:02.383Z,81.40
2022-11-16T21:36:31.784Z,81.30
2022-11-16T21:38:59.509Z,81.20
2022-11-16T21:41:26.726Z,80.90
2022-11-16T21:43:54.105Z,80.70
2022-11-16T21:46:24.987Z,80.70
2022-11-16T21:48:53.915Z,81.00
2022-11-16T21:51:24.904Z,80.70
2022-11-16T21:53:52.563Z,80.60
2022-11-16T21:56:21.906Z,80.60
2022-11-16T21:58:52.593Z,80.50
2022-11-16T22:01:21.056Z,80.70
2022-11-16T22:04:08.625Z,80.70
2022-11-16T22:06:54.249Z,80.70
2022-11-16T22:09:21.679Z,80.60
2022-11-16T22:11:48.892Z,80.50
2022-11-16T22:14:16.120Z,80.60
2022-11-16T22:16:43.423Z,80.60
2022-11-16T22:19:10.672Z,80.90
2022-11-16T22:21:37.806Z,81.00
2022-11-16T22:24:05.520Z,80.20
2022-11-16T22:26:33.669Z,79.60
2022-11-16T22:29:01.104Z,79.20
2022-11-16T22:31:28.307Z,78.80
2022-11-16T22:33:55.517Z,78.70
2022-11-16T22:36:22.589Z,78.20
2022-11-16T22:38:49.863Z,78.20
2022-11-16T22:41:17.111Z,77.90
2022-11-16T22:43:44.162Z,77.70
2022-11-16T22:46:11.376Z,77.40
2022-11-16T22:48:40.171Z,77.10
2022-11-16T22:51:12.267Z,77.00
2022-11-16T22:53:39.358Z,76.90
2022-11-16T22:56:08.234Z,76.70
2022-11-16T22:58:37.090Z,76.50
2022-11-16T23:01:05.511Z,76.60
2022-11-16T23:03:32.753Z,76.80
2022-11-16T23:06:02.754Z,76.90
2022-11-16T23:08:30.309Z,77.00
2022-11-16T23:11:21.773Z,77.10
2022-11-16T23:14:07.898Z,77.10
2022-11-16T23:16:35.713Z,77.20
2022-11-16T23:19:03.206Z,77.00
2022-11-16T23:21:48.717Z,76.90
2022-11-16T23:24:34.448Z,77.00
2022-11-16T23:27:22.400Z,77.20
2022-11-16T23:29:49.965Z,77.10
2022-11-16T23:32:17.499Z,77.20
2022-11-16T23:34:44.754Z,76.90
2022-11-16T23:37:11.828Z,77.10
2022-11-16T23:39:38.855Z,77.20
2022-11-16T23:42:24.473Z,77.50
2022-11-16T23:44:51.644Z,77.90
2022-11-16T23:47:19.018Z,78.30
2022-11-16T23:49:46.091Z,78.30
2022-11-16T23:52:13.253Z,78.00
2022-11-16T23:54:40.410Z,77.90
2022-11-16T23:57:07.789Z,77.70
2022-11-16T23:59:35.089Z,77.10
